createdAt,value
2018-11-05T00:00:19.703Z,14.3
2018-11-05T00:00:39.312Z,14.9
2018-11-05T00:00:58.905Z,14.6
2018-11-05T00:01:20.544Z,14.7
2018-11-05T00:01:40.407Z,14.6
2018-11-05T00:02:00.060Z,14.4
2018-11-05T00:02:19.629Z,14.9
2018-11-05T00:02:39.313Z,15.2
2018-11-05T00:02:59.047Z,15
2018-11-05T00:03:18.651Z,14.4
2018-11-05T00:03:38.368Z,15.2
2018-11-05T00:03:58.022Z,14.6
2018-11-05T00:04:17.649Z,15
2018-11-05T00:04:37.220Z,16.200001
2018-11-05T00:04:56.831Z,16.700001
2018-11-05T00:05:17.397Z,16.299999
2018-11-05T00:05:37.028Z,16.200001
2018-11-05T00:05:56.786Z,16
2018-11-05T00:06:16.403Z,16.1
2018-11-05T00:06:35.975Z,16.700001
2018-11-05T00:06:56.550Z,16.200001
2018-11-05T00:07:16.158Z,16.799999
2018-11-05T00:07:35.774Z,16
2018-11-05T00:07:55.511Z,17
2018-11-05T00:08:15.161Z,17
2018-11-05T00:08:34.749Z,16.6
2018-11-05T00:08:54.320Z,16.5
2018-11-05T00:09:13.948Z,16.6
2018-11-05T00:09:35.112Z,16.799999
2018-11-05T00:09:54.892Z,15.9
2018-11-05T00:10:14.471Z,15.2
2018-11-05T00:10:35.341Z,15.6
2018-11-05T00:10:54.883Z,16.200001
2018-11-05T00:11:14.601Z,15.9
2018-11-05T00:11:34.139Z,16.1
2018-11-05T00:11:53.681Z,15.9
2018-11-05T00:12:14.232Z,16
2018-11-05T00:12:33.882Z,16.1
2018-11-05T00:12:53.681Z,16.5
2018-11-05T00:13:13.302Z,17
2018-11-05T00:13:32.859Z,17.6
2018-11-05T00:13:53.397Z,18
2018-11-05T00:14:13.037Z,18.5
2018-11-05T00:14:32.675Z,18.799999
2018-11-05T00:14:52.205Z,18.5
2018-11-05T00:15:11.831Z,18.700001
2018-11-05T00:15:31.434Z,19.299999
2018-11-05T00:15:51.048Z,19.6
2018-11-05T00:16:10.769Z,19.799999
2018-11-05T00:16:30.410Z,18.4
2018-11-05T00:16:50.005Z,19.1
2018-11-05T00:17:10.505Z,19.799999
2018-11-05T00:17:30.049Z,19.4
2018-11-05T00:17:49.612Z,20.299999
2018-11-05T00:18:09.314Z,20.4
2018-11-05T00:18:28.860Z,20.1
2018-11-05T00:18:48.426Z,21
2018-11-05T00:19:08.075Z,20.6
2018-11-05T00:19:27.667Z,20.299999
2018-11-05T00:19:47.205Z,20.1
2018-11-05T00:20:06.815Z,20.9
2018-11-05T00:20:26.465Z,21.799999
2018-11-05T00:20:47.077Z,22
2018-11-05T00:21:07.765Z,21.200001
2018-11-05T00:21:27.495Z,20.9
2018-11-05T00:21:47.051Z,21
2018-11-05T00:22:06.703Z,21.4
2018-11-05T00:22:26.464Z,20.4
2018-11-05T00:22:46.028Z,20.799999
2018-11-05T00:23:05.665Z,20.6
2018-11-05T00:23:25.224Z,20.299999
2018-11-05T00:23:44.820Z,20.9
2018-11-05T00:24:04.632Z,20.4
2018-11-05T00:24:24.227Z,20.700001
2018-11-05T00:24:43.850Z,20.799999
2018-11-05T00:25:03.405Z,20.700001
2018-11-05T00:25:23.129Z,20.6
2018-11-05T00:25:42.938Z,20.700001
2018-11-05T00:26:02.510Z,20.700001
2018-11-05T00:26:22.205Z,20.5
2018-11-05T00:26:42.052Z,21.1
2018-11-05T00:27:01.820Z,21.200001
2018-11-05T00:27:22.507Z,20.4
2018-11-05T00:27:42.267Z,20.299999
2018-11-05T00:28:01.863Z,20.5
2018-11-05T00:28:21.569Z,21.1
2018-11-05T00:28:41.201Z,20.9
2018-11-05T00:29:00.786Z,20.799999
2018-11-05T00:29:20.474Z,20.5
2018-11-05T00:29:40.046Z,20.700001
2018-11-05T00:30:01.146Z,19.700001
2018-11-05T00:30:21.439Z,19.700001
2018-11-05T00:30:40.995Z,20.5
2018-11-05T00:31:00.577Z,21.299999
2018-11-05T00:31:20.200Z,20.799999
2018-11-05T00:31:39.730Z,21.1
2018-11-05T00:31:59.286Z,21.5
2018-11-05T00:32:18.835Z,21.799999
2018-11-05T00:32:38.461Z,21.6
2018-11-05T00:32:58.017Z,22.5
2018-11-05T00:33:17.661Z,22.6
2018-11-05T00:33:37.291Z,22.9
2018-11-05T00:33:56.861Z,22.9
2018-11-05T00:34:16.479Z,21.700001
2018-11-05T00:34:36.164Z,21.799999
2018-11-05T00:34:55.865Z,22.299999
2018-11-05T00:35:15.391Z,21.700001
2018-11-05T00:35:34.975Z,22.200001
2018-11-05T00:35:54.567Z,21.5
2018-11-05T00:36:14.422Z,21.1
2018-11-05T00:36:34.061Z,21.700001
2018-11-05T00:36:53.658Z,21.700001
2018-11-05T00:37:13.309Z,21.4
2018-11-05T00:37:32.905Z,20.9
2018-11-05T00:37:53.596Z,21.6
2018-11-05T00:38:13.631Z,22.200001
2018-11-05T00:38:33.225Z,22.200001
2018-11-05T00:38:52.936Z,22.200001
2018-11-05T00:39:14.003Z,22.4
2018-11-05T00:39:34.592Z,22.200001
2018-11-05T00:39:54.157Z,22.200001
2018-11-05T00:40:13.749Z,22.799999
2018-11-05T00:40:33.384Z,22.6
2018-11-05T00:40:53.016Z,22.700001
2018-11-05T00:41:12.728Z,23.299999
2018-11-05T00:41:32.817Z,23.6
2018-11-05T00:41:52.372Z,24
2018-11-05T00:42:12.136Z,23.799999
2018-11-05T00:42:31.776Z,22.5
2018-11-05T00:42:51.650Z,22.4
2018-11-05T00:43:11.227Z,22.9
2018-11-05T00:43:31.932Z,22.6
2018-11-05T00:43:51.522Z,22.6
2018-11-05T00:44:11.285Z,23.700001
2018-11-05T00:44:31.898Z,23.1
2018-11-05T00:44:51.447Z,23.4
2018-11-05T00:45:11.110Z,23.4
2018-11-05T00:45:30.885Z,23.299999
2018-11-05T00:45:50.609Z,22.700001
2018-11-05T00:46:10.087Z,22.700001
2018-11-05T00:46:29.638Z,23.700001
2018-11-05T00:46:49.299Z,23.5
2018-11-05T00:47:09.009Z,23
2018-11-05T00:47:28.575Z,22.4
2018-11-05T00:47:49.117Z,22.299999
2018-11-05T00:48:08.659Z,22.9
2018-11-05T00:48:29.283Z,23.6
2018-11-05T00:48:48.824Z,24
2018-11-05T00:49:08.367Z,23.299999
2018-11-05T00:49:27.926Z,23.1
2018-11-05T00:49:47.503Z,22.799999
2018-11-05T00:50:07.454Z,23.6
2018-11-05T00:50:28.655Z,23.6
2018-11-05T00:50:49.419Z,23
2018-11-05T00:51:09.160Z,22.4
2018-11-05T00:51:28.755Z,22.9
2018-11-05T00:51:49.390Z,23.200001
2018-11-05T00:52:08.948Z,22.700001
2018-11-05T00:52:28.785Z,23.5
2018-11-05T00:52:49.442Z,23.9
2018-11-05T00:53:09.003Z,23.299999
2018-11-05T00:53:28.603Z,23.200001
2018-11-05T00:53:48.152Z,23.200001
2018-11-05T00:54:07.755Z,23.4
2018-11-05T00:54:27.488Z,23.799999
2018-11-05T00:54:47.183Z,23.799999
2018-11-05T00:55:06.798Z,22.5
2018-11-05T00:55:26.347Z,21.4
2018-11-05T00:55:45.989Z,21.6
2018-11-05T00:56:05.664Z,22
2018-11-05T00:56:26.561Z,22
2018-11-05T00:56:46.337Z,22.5
2018-11-05T00:57:06.021Z,22.200001
2018-11-05T00:57:25.750Z,22.4
2018-11-05T00:57:45.341Z,23
2018-11-05T00:58:04.898Z,22.5
2018-11-05T00:58:24.733Z,22.200001
2018-11-05T00:58:44.621Z,21.9
2018-11-05T00:59:05.240Z,22.6
2018-11-05T00:59:24.823Z,23.299999
2018-11-05T00:59:44.426Z,22.200001
2018-11-05T01:00:04.061Z,21.9
2018-11-05T01:00:23.632Z,22
2018-11-05T01:00:43.324Z,22.200001
2018-11-05T01:01:03.285Z,21.6
2018-11-05T01:01:23.196Z,22.5
2018-11-05T01:01:42.892Z,21.799999
2018-11-05T01:02:02.562Z,22
2018-11-05T01:02:22.379Z,22.299999
2018-11-05T01:02:42.147Z,22
2018-11-05T01:03:01.750Z,22.4
2018-11-05T01:03:21.273Z,21.5
2018-11-05T01:03:40.959Z,21.5
2018-11-05T01:04:00.644Z,22.6
2018-11-05T01:04:20.320Z,22.5
2018-11-05T01:04:39.951Z,22.1
2018-11-05T01:04:59.504Z,21.799999
2018-11-05T01:05:19.184Z,22.700001
2018-11-05T01:05:38.812Z,22.9
2018-11-05T01:05:58.552Z,23.5
2018-11-05T01:06:18.109Z,23.299999
2018-11-05T01:06:37.682Z,23.799999
2018-11-05T01:06:57.285Z,23.1
2018-11-05T01:07:16.864Z,23
2018-11-05T01:07:36.431Z,23
2018-11-05T01:07:56.056Z,22.799999
2018-11-05T01:08:15.584Z,23.299999
2018-11-05T01:08:35.149Z,23.4
2018-11-05T01:08:54.734Z,22.799999
2018-11-05T01:09:14.368Z,23.299999
2018-11-05T01:09:34.210Z,22.700001
2018-11-05T01:09:53.905Z,22.799999
2018-11-05T01:10:14.538Z,23.200001
2018-11-05T01:10:35.094Z,23.9
2018-11-05T01:10:54.719Z,24
2018-11-05T01:11:14.259Z,24.1
2018-11-05T01:11:33.792Z,23.9
2018-11-05T01:11:53.412Z,23.799999
2018-11-05T01:12:12.988Z,24
2018-11-05T01:12:32.546Z,24.1
2018-11-05T01:12:55.761Z,23.299999
2018-11-05T01:13:17.978Z,22.700001
2018-11-05T01:13:38.511Z,23.1
2018-11-05T01:13:58.672Z,22.700001
2018-11-05T01:14:18.683Z,22.1
2018-11-05T01:14:38.426Z,21.9
2018-11-05T01:14:58.436Z,22.200001
2018-11-05T01:15:18.417Z,22.799999
2018-11-05T01:15:39.175Z,23
2018-11-05T01:15:58.933Z,23.5
2018-11-05T01:16:18.615Z,23.200001
2018-11-05T01:16:38.406Z,23.5
2018-11-05T01:16:58.247Z,23.1
2018-11-05T01:17:17.975Z,23.299999
2018-11-05T01:17:37.750Z,23.4
2018-11-05T01:17:57.660Z,23.700001
2018-11-05T01:18:17.244Z,22.9
2018-11-05T01:18:37.022Z,23.4
2018-11-05T01:18:57.708Z,24
2018-11-05T01:19:17.369Z,24.1
2018-11-05T01:19:38.361Z,23.9
2018-11-05T01:19:58.529Z,23.4
2018-11-05T01:20:18.473Z,23.299999
2018-11-05T01:20:38.180Z,23.5
2018-11-05T01:20:57.777Z,23.9
2018-11-05T01:21:17.605Z,24
2018-11-05T01:21:37.332Z,24.9
2018-11-05T01:21:58.204Z,25
2018-11-05T01:22:18.136Z,24.299999
2018-11-05T01:22:37.875Z,23.799999
2018-11-05T01:22:57.568Z,23.200001
2018-11-05T01:23:17.156Z,23.799999
2018-11-05T01:23:36.891Z,24
2018-11-05T01:23:56.672Z,24.700001
2018-11-05T01:24:16.684Z,25.200001
2018-11-05T01:24:36.913Z,25.200001
2018-11-05T01:24:56.705Z,24.700001
2018-11-05T01:25:16.521Z,24.5
2018-11-05T01:25:36.571Z,24.5
2018-11-05T01:25:56.747Z,23.799999
2018-11-05T01:26:16.608Z,24.200001
2018-11-05T01:26:36.606Z,24.299999
2018-11-05T01:26:56.357Z,23.700001
2018-11-05T01:27:16.399Z,24.1
2018-11-05T01:27:36.285Z,23.9
2018-11-05T01:27:56.782Z,24.700001
2018-11-05T01:28:16.461Z,24.6
2018-11-05T01:28:36.140Z,23.5
2018-11-05T01:28:56.044Z,23.299999
2018-11-05T01:29:15.748Z,23.5
2018-11-05T01:29:35.429Z,24.1
2018-11-05T01:29:55.878Z,23.299999
2018-11-05T01:30:15.674Z,23.4
2018-11-05T01:30:35.190Z,24.299999
2018-11-05T01:30:54.769Z,23.9
2018-11-05T01:31:14.348Z,24.200001
2018-11-05T01:31:34.019Z,24.6
2018-11-05T01:31:53.608Z,23.299999
2018-11-05T01:32:13.159Z,23.9
2018-11-05T01:32:32.818Z,24
2018-11-05T01:32:52.405Z,24.299999
2018-11-05T01:33:12.709Z,23.9
2018-11-05T01:33:34.165Z,22.799999
2018-11-05T01:33:53.735Z,22.6
2018-11-05T01:34:13.372Z,23
2018-11-05T01:34:33.031Z,23.6
2018-11-05T01:34:52.706Z,23.200001
2018-11-05T01:35:12.280Z,24.799999
2018-11-05T01:35:31.888Z,23.9
2018-11-05T01:35:51.482Z,22.4
2018-11-05T01:36:11.001Z,22.4
2018-11-05T01:36:30.624Z,22.299999
2018-11-05T01:36:50.151Z,22.5
2018-11-05T01:37:10.891Z,22.700001
2018-11-05T01:37:31.304Z,22.5
2018-11-05T01:37:50.939Z,22.1
2018-11-05T01:38:10.495Z,22.1
2018-11-05T01:38:30.101Z,21.6
2018-11-05T01:38:49.871Z,21.799999
2018-11-05T01:39:10.364Z,21.6
2018-11-05T01:39:30.072Z,21.9
2018-11-05T01:39:49.666Z,21.799999
2018-11-05T01:40:09.240Z,21.799999
2018-11-05T01:40:28.967Z,21.700001
2018-11-05T01:40:48.578Z,22.200001
2018-11-05T01:41:08.179Z,22.9
2018-11-05T01:41:27.807Z,23
2018-11-05T01:41:47.378Z,23
2018-11-05T01:42:06.956Z,22.6
2018-11-05T01:42:26.568Z,22.799999
2018-11-05T01:42:46.142Z,23
2018-11-05T01:43:05.761Z,23.700001
2018-11-05T01:43:25.312Z,23.5
2018-11-05T01:43:45.008Z,23.299999
2018-11-05T01:44:04.571Z,23
2018-11-05T01:44:24.415Z,23.6
2018-11-05T01:44:44.036Z,23.1
2018-11-05T01:45:03.563Z,23.200001
2018-11-05T01:45:23.068Z,24.200001
2018-11-05T01:45:42.766Z,24.5
2018-11-05T01:46:02.295Z,23.799999
2018-11-05T01:46:21.931Z,22.9
2018-11-05T01:46:41.469Z,23.5
2018-11-05T01:47:01.120Z,24.200001
2018-11-05T01:47:20.930Z,25
2018-11-05T01:47:40.481Z,24.4
2018-11-05T01:48:00.049Z,23.799999
2018-11-05T01:48:19.652Z,24.5
2018-11-05T01:48:39.468Z,24.299999
2018-11-05T01:48:59.262Z,24.5
2018-11-05T01:49:18.861Z,24.6
2018-11-05T01:49:38.490Z,24.5
2018-11-05T01:49:58.303Z,24.799999
2018-11-05T01:50:17.885Z,24.1
2018-11-05T01:50:37.503Z,23.200001
2018-11-05T01:50:57.180Z,23.9
2018-11-05T01:51:17.064Z,23.9
2018-11-05T01:51:36.830Z,24
2018-11-05T01:51:56.614Z,23.6
2018-11-05T01:52:16.254Z,23.700001
2018-11-05T01:52:35.794Z,23.9
2018-11-05T01:52:55.369Z,23.6
2018-11-05T01:53:14.953Z,24.9
2018-11-05T01:53:34.528Z,24.200001
2018-11-05T01:53:54.108Z,23.299999
2018-11-05T01:54:13.678Z,23.700001
2018-11-05T01:54:34.307Z,23.1
2018-11-05T01:54:53.855Z,23.700001
2018-11-05T01:55:13.414Z,22.799999
2018-11-05T01:55:35.207Z,22.700001
2018-11-05T01:55:54.976Z,22.700001
2018-11-05T01:56:14.703Z,21.9
2018-11-05T01:56:34.349Z,23.4
2018-11-05T01:56:53.931Z,23
2018-11-05T01:57:13.602Z,23.5
2018-11-05T01:57:33.185Z,22.4
2018-11-05T01:57:52.696Z,21.9
2018-11-05T01:58:12.280Z,21.9
2018-11-05T01:58:32.885Z,20.200001
2018-11-05T01:58:52.432Z,17.200001
2018-11-05T01:59:12.099Z,15.4
2018-11-05T01:59:31.770Z,15.1
2018-11-05T01:59:51.364Z,13.9
2018-11-05T02:00:10.910Z,13.8
2018-11-05T02:00:30.544Z,14.2
2018-11-05T02:00:50.080Z,14.1
2018-11-05T02:01:09.723Z,14.6
2018-11-05T02:01:30.345Z,14.4
2018-11-05T02:01:49.925Z,14.5
2018-11-05T02:02:09.591Z,14.6
2018-11-05T02:02:29.180Z,14.6
2018-11-05T02:02:48.804Z,14
2018-11-05T02:03:08.348Z,14.7
2018-11-05T02:03:28.053Z,15.4
2018-11-05T02:03:47.629Z,15.1
2018-11-05T02:04:08.277Z,15
2018-11-05T02:04:27.914Z,15.5
2018-11-05T02:04:47.584Z,15.6
2018-11-05T02:05:07.233Z,15.1
2018-11-05T02:05:26.856Z,15.3
2018-11-05T02:05:46.481Z,15.7
2018-11-05T02:06:06.074Z,15.8
2018-11-05T02:06:25.615Z,15.6
2018-11-05T02:06:45.176Z,15.2
2018-11-05T02:07:04.776Z,15.5
2018-11-05T02:07:24.583Z,15.8
2018-11-05T02:07:44.212Z,15.8
2018-11-05T02:08:03.874Z,15.7
2018-11-05T02:08:23.640Z,16.6
2018-11-05T02:08:43.230Z,17
2018-11-05T02:09:02.769Z,16.6
2018-11-05T02:09:23.324Z,16.6
2018-11-05T02:09:50.869Z,16.6
2018-11-05T02:10:10.584Z,16.200001
2018-11-05T02:10:30.200Z,16.1
2018-11-05T02:10:49.863Z,16.5
2018-11-05T02:11:09.627Z,17.1
2018-11-05T02:11:31.282Z,16.6
2018-11-05T02:11:58.477Z,17.1
2018-11-05T02:12:18.114Z,17.200001
2018-11-05T02:12:41.879Z,16
2018-11-05T02:13:01.943Z,16.4
2018-11-05T02:13:24.874Z,17.200001
2018-11-05T02:14:01.294Z,17.299999
2018-11-05T02:14:34.332Z,17.299999
2018-11-05T02:14:59.732Z,16.9
2018-11-05T02:15:36.899Z,18.1
2018-11-05T02:16:08.555Z,17.4
2018-11-05T02:16:30.256Z,18.4
2018-11-05T02:16:49.813Z,17.799999
2018-11-05T02:17:09.340Z,18.9
2018-11-05T02:17:28.924Z,18.700001
2018-11-05T02:17:48.514Z,18.9
2018-11-05T02:18:08.096Z,19.4
2018-11-05T02:18:27.664Z,19.4
2018-11-05T02:18:47.240Z,19
2018-11-05T02:19:06.824Z,18.5
2018-11-05T02:19:26.413Z,18.200001
2018-11-05T02:19:45.971Z,19.200001
2018-11-05T02:20:05.574Z,18.6
2018-11-05T02:20:25.217Z,18.799999
2018-11-05T02:20:44.783Z,18.5
2018-11-05T02:21:05.341Z,18.700001
2018-11-05T02:21:24.897Z,18.700001
2018-11-05T02:21:44.609Z,18.4
2018-11-05T02:22:04.133Z,18.700001
2018-11-05T02:22:23.673Z,18.1
2018-11-05T02:22:43.259Z,19.200001
2018-11-05T02:23:02.872Z,19.299999
2018-11-05T02:23:22.464Z,18.9
2018-11-05T02:23:42.071Z,18.5
2018-11-05T02:24:01.721Z,19
2018-11-05T02:24:21.282Z,19.299999
2018-11-05T02:24:40.966Z,19.700001
2018-11-05T02:25:00.639Z,19.4
2018-11-05T02:25:20.227Z,19.200001
2018-11-05T02:25:39.730Z,19
2018-11-05T02:25:59.342Z,18.799999
2018-11-05T02:26:18.920Z,18.799999
2018-11-05T02:26:38.524Z,18.799999
2018-11-05T02:26:58.220Z,18.5
2018-11-05T02:27:17.775Z,18.5
2018-11-05T02:27:37.349Z,19.1
2018-11-05T02:27:56.954Z,18.4
2018-11-05T02:28:16.537Z,18.299999
2018-11-05T02:28:36.156Z,18.700001
2018-11-05T02:28:55.696Z,17.799999
2018-11-05T02:29:15.268Z,17.1
2018-11-05T02:29:34.838Z,17.200001
2018-11-05T02:29:54.349Z,17
2018-11-05T02:30:14.009Z,17.299999
2018-11-05T02:30:33.596Z,17.700001
2018-11-05T02:30:53.155Z,17.200001
2018-11-05T02:31:12.755Z,17.299999
2018-11-05T02:31:32.457Z,17.299999
2018-11-05T02:31:52.008Z,17.700001
2018-11-05T02:32:11.601Z,17.700001
2018-11-05T02:32:31.177Z,17.4
2018-11-05T02:32:51.710Z,17.1
2018-11-05T02:33:11.243Z,16.4
2018-11-05T02:33:30.852Z,17.200001
2018-11-05T02:33:50.709Z,17.5
2018-11-05T02:34:10.191Z,17
2018-11-05T02:34:30.054Z,16.200001
2018-11-05T02:34:49.695Z,16.5
2018-11-05T02:35:09.295Z,16.6
2018-11-05T02:35:28.969Z,15.6
2018-11-05T02:35:48.597Z,15.3
2018-11-05T02:36:08.202Z,15.2
2018-11-05T02:36:27.853Z,14.7
2018-11-05T02:36:47.437Z,15.2
2018-11-05T02:37:07.037Z,15.8
2018-11-05T02:37:26.599Z,15.4
2018-11-05T02:37:46.184Z,14.9
2018-11-05T02:38:05.787Z,14.6
2018-11-05T02:38:25.412Z,14.3
2018-11-05T02:38:44.973Z,14.6
2018-11-05T02:39:04.623Z,14.5
2018-11-05T02:39:24.202Z,14.3
2018-11-05T02:39:43.784Z,14.7
2018-11-05T02:40:03.462Z,14.4
2018-11-05T02:40:23.341Z,13.7
2018-11-05T02:40:43.063Z,13.3
2018-11-05T02:41:02.765Z,13.9
2018-11-05T02:41:24.557Z,13.8
2018-11-05T02:41:44.113Z,13.2
2018-11-05T02:42:03.686Z,13
2018-11-05T02:42:23.322Z,12.7
2018-11-05T02:42:43.076Z,13
2018-11-05T02:43:02.623Z,13.2
2018-11-05T02:43:23.228Z,13
2018-11-05T02:43:42.842Z,12.8
2018-11-05T02:44:02.437Z,13.3
2018-11-05T02:44:22.014Z,12.9
2018-11-05T02:44:41.622Z,12.4
2018-11-05T02:45:01.213Z,12.9
2018-11-05T02:45:20.829Z,13
2018-11-05T02:45:40.417Z,13.1
2018-11-05T02:46:00.038Z,12.9
2018-11-05T02:46:19.675Z,12.7
2018-11-05T02:46:39.434Z,12.7
2018-11-05T02:46:58.986Z,12.8
2018-11-05T02:47:18.568Z,12.4
2018-11-05T02:47:38.151Z,12.2
2018-11-05T02:47:57.685Z,12.2
2018-11-05T02:48:17.317Z,13.2
2018-11-05T02:48:36.895Z,12.8
2018-11-05T02:48:56.417Z,11.9
2018-11-05T02:49:16.000Z,12.9
2018-11-05T02:49:35.580Z,12.9
2018-11-05T02:49:55.101Z,13.4
2018-11-05T02:50:14.675Z,13.1
2018-11-05T02:50:34.312Z,13.1
2018-11-05T02:50:53.881Z,13.1
2018-11-05T02:51:13.433Z,13.3
2018-11-05T02:51:32.995Z,12.9
2018-11-05T02:51:52.599Z,12.8
2018-11-05T02:52:12.156Z,12.4
2018-11-05T02:52:31.769Z,12.9
2018-11-05T02:52:51.311Z,13.4
2018-11-05T02:53:10.866Z,13.1
2018-11-05T02:53:30.447Z,13
2018-11-05T02:53:50.007Z,13
2018-11-05T02:54:09.609Z,12.4
2018-11-05T02:54:29.210Z,12.9
2018-11-05T02:54:48.770Z,12.5
2018-11-05T02:55:08.309Z,12.2
2018-11-05T02:55:28.924Z,12.8
2018-11-05T02:55:48.487Z,13
2018-11-05T02:56:08.093Z,13
2018-11-05T02:56:27.627Z,12.6
2018-11-05T02:56:47.217Z,12.3
2018-11-05T02:57:07.746Z,12
2018-11-05T02:57:28.311Z,12.1
2018-11-05T02:57:47.954Z,13.1
2018-11-05T02:58:07.480Z,12.7
2018-11-05T02:58:27.065Z,11.9
2018-11-05T02:58:47.778Z,12.6
2018-11-05T02:59:07.323Z,11.9
2018-11-05T02:59:26.877Z,11.9
2018-11-05T02:59:46.423Z,12.1
2018-11-05T03:00:06.028Z,12.1
2018-11-05T03:00:25.649Z,11.6
2018-11-05T03:00:45.327Z,11.7
2018-11-05T03:01:04.922Z,11.6
2018-11-05T03:01:24.582Z,11.7
2018-11-05T03:01:44.089Z,11.4
2018-11-05T03:02:03.745Z,11.1
2018-11-05T03:02:23.303Z,10.6
2018-11-05T03:02:42.851Z,10.5
2018-11-05T03:03:02.617Z,9.4
2018-11-05T03:03:22.221Z,9.5
2018-11-05T03:03:41.648Z,8.9
2018-11-05T03:04:01.206Z,8
2018-11-05T03:04:20.850Z,7.4
2018-11-05T03:04:40.493Z,7.3
2018-11-05T03:05:00.163Z,7.5
2018-11-05T03:05:19.764Z,6.7
2018-11-05T03:05:41.762Z,6.8
2018-11-05T03:06:01.237Z,7
2018-11-05T03:06:20.769Z,6.8
2018-11-05T03:06:40.329Z,6.6
2018-11-05T03:06:59.951Z,5.9
2018-11-05T03:07:19.511Z,5.7
2018-11-05T03:07:39.056Z,5.6
2018-11-05T03:07:58.729Z,5
2018-11-05T03:08:18.461Z,4.6
2018-11-05T03:08:38.068Z,4.7
2018-11-05T03:08:57.635Z,4.6
2018-11-05T03:09:18.649Z,4.7
2018-11-05T03:09:38.307Z,4.6
2018-11-05T03:09:57.930Z,4.5
2018-11-05T03:10:17.664Z,4.5
2018-11-05T03:10:37.431Z,4.7
2018-11-05T03:10:57.049Z,4.6
2018-11-05T03:11:16.611Z,4.6
2018-11-05T03:11:36.203Z,4.9
2018-11-05T03:11:55.829Z,4.6
2018-11-05T03:12:15.427Z,4.6
2018-11-05T03:12:35.111Z,4.5
2018-11-05T03:12:54.724Z,4.6
2018-11-05T03:13:14.282Z,4.6
2018-11-05T03:13:33.884Z,4.4
2018-11-05T03:13:53.472Z,4.1
2018-11-05T03:14:13.079Z,4.1
2018-11-05T03:14:32.785Z,4.1
2018-11-05T03:14:53.496Z,4.6
2018-11-05T03:15:13.120Z,4.3
2018-11-05T03:15:32.721Z,4.2
2018-11-05T03:15:52.393Z,4.4
2018-11-05T03:16:12.109Z,4.2
2018-11-05T03:16:31.784Z,4
2018-11-05T03:16:51.401Z,3.9
2018-11-05T03:17:11.079Z,3.8
2018-11-05T03:17:30.732Z,3.8
2018-11-05T03:17:50.335Z,3.9
2018-11-05T03:18:09.964Z,4.1
2018-11-05T03:18:29.510Z,4
2018-11-05T03:18:49.069Z,3.9
2018-11-05T03:19:08.659Z,3.8
2018-11-05T03:19:28.206Z,3.7
2018-11-05T03:19:47.783Z,3.9
2018-11-05T03:20:07.352Z,3.9
2018-11-05T03:20:31.850Z,3.6
2018-11-05T03:20:54.055Z,3.5
2018-11-05T03:21:15.150Z,3.4
2018-11-05T03:21:34.966Z,3.5
2018-11-05T03:21:54.611Z,3.8
2018-11-05T03:22:14.247Z,3.6
2018-11-05T03:22:33.953Z,3.6
2018-11-05T03:22:53.559Z,3.6
2018-11-05T03:23:13.128Z,3.8
2018-11-05T03:23:32.688Z,3.6
2018-11-05T03:23:52.309Z,3.6
2018-11-05T03:24:11.858Z,3.6
2018-11-05T03:24:31.465Z,3.5
2018-11-05T03:24:51.122Z,3.3
2018-11-05T03:25:10.734Z,3.3
2018-11-05T03:25:30.296Z,3.3
2018-11-05T03:25:51.847Z,3.3
2018-11-05T03:26:11.499Z,3.2
2018-11-05T03:26:31.062Z,3.7
2018-11-05T03:26:50.686Z,3.6
2018-11-05T03:27:10.239Z,3.5
2018-11-05T03:27:29.807Z,3.3
2018-11-05T03:27:49.671Z,3.3
2018-11-05T03:28:11.361Z,3.3
2018-11-05T03:28:30.915Z,3.3
2018-11-05T03:28:50.494Z,3.2
2018-11-05T03:29:10.047Z,3.5
2018-11-05T03:29:29.669Z,3.4
2018-11-05T03:29:49.297Z,3.1
2018-11-05T03:30:08.862Z,3.3
2018-11-05T03:30:28.419Z,3.4
2018-11-05T03:30:48.991Z,3.3
2018-11-05T03:31:08.622Z,3.3
2018-11-05T03:31:28.208Z,3.3
2018-11-05T03:31:47.876Z,3.3
2018-11-05T03:32:07.526Z,3.4
2018-11-05T03:32:27.123Z,3.5
2018-11-05T03:32:46.718Z,3.2
2018-11-05T03:33:06.288Z,3.1
2018-11-05T03:33:25.846Z,3.1
2018-11-05T03:33:45.427Z,3.2
2018-11-05T03:34:05.033Z,3.3
2018-11-05T03:34:24.678Z,3.2
2018-11-05T03:34:44.286Z,3.2
2018-11-05T03:35:03.945Z,3.5
2018-11-05T03:35:23.909Z,3.3
2018-11-05T03:35:43.528Z,3.2
2018-11-05T03:36:03.215Z,3.3
2018-11-05T03:36:22.716Z,3.2
2018-11-05T03:36:42.296Z,3.2
2018-11-05T03:37:01.863Z,3.3
2018-11-05T03:37:21.593Z,3.3
2018-11-05T03:37:41.173Z,3.3
2018-11-05T03:38:00.839Z,3.4
2018-11-05T03:38:20.481Z,3.5
2018-11-05T03:38:40.120Z,3.1
2018-11-05T03:38:59.708Z,2.9
2018-11-05T03:39:19.325Z,3.4
2018-11-05T03:39:38.957Z,3.5
2018-11-05T03:39:58.595Z,3.4
2018-11-05T03:40:18.258Z,3.6
2018-11-05T03:40:37.885Z,3.5
2018-11-05T03:40:57.530Z,3.4
2018-11-05T03:41:17.260Z,3.4
2018-11-05T03:41:36.841Z,3.7
2018-11-05T03:41:56.444Z,3.5
2018-11-05T03:42:16.022Z,3.6
2018-11-05T03:42:35.633Z,3.6
2018-11-05T03:42:55.295Z,3.6
2018-11-05T03:43:14.912Z,3.6
2018-11-05T03:43:34.483Z,3.4
2018-11-05T03:43:55.061Z,3.5
2018-11-05T03:44:14.609Z,3.3
2018-11-05T03:44:34.251Z,3.2
2018-11-05T03:44:53.903Z,3.5
2018-11-05T03:45:13.526Z,3.5
2018-11-05T03:45:33.146Z,3.3
2018-11-05T03:45:52.719Z,3.6
2018-11-05T03:46:12.344Z,3.4
2018-11-05T03:46:32.033Z,3.5
2018-11-05T03:46:51.555Z,3.3
2018-11-05T03:47:11.133Z,3.7
2018-11-05T03:47:31.748Z,3.6
2018-11-05T03:47:51.346Z,3.6
2018-11-05T03:48:10.964Z,3.5
2018-11-05T03:48:30.576Z,3.4
2018-11-05T03:48:50.152Z,3.5
2018-11-05T03:49:09.738Z,3.8
2018-11-05T03:49:29.286Z,3.4
2018-11-05T03:49:49.842Z,3.6
2018-11-05T03:50:09.419Z,3.4
2018-11-05T03:50:28.988Z,3.4
2018-11-05T03:50:48.580Z,3.6
2018-11-05T03:51:09.162Z,3.5
2018-11-05T03:51:28.801Z,3.5
2018-11-05T03:51:48.454Z,3.8
2018-11-05T03:52:08.079Z,3.8
2018-11-05T03:52:27.628Z,3.5
2018-11-05T03:52:47.217Z,3.3
2018-11-05T03:53:06.786Z,3.4
2018-11-05T03:53:26.360Z,3.5
2018-11-05T03:53:45.954Z,3.5
2018-11-05T03:54:05.533Z,3.5
2018-11-05T03:54:25.195Z,3.7
2018-11-05T03:54:44.808Z,3.7
2018-11-05T03:55:04.438Z,3.6
2018-11-05T03:55:24.134Z,3.5
2018-11-05T03:55:43.805Z,3.6
2018-11-05T03:56:03.530Z,3.6
2018-11-05T03:56:23.176Z,3.9
2018-11-05T03:56:42.642Z,4.1
2018-11-05T03:57:02.155Z,3.5
2018-11-05T03:57:21.793Z,3.4
2018-11-05T03:57:41.355Z,3.4
2018-11-05T03:58:00.977Z,3.5
2018-11-05T03:58:20.596Z,3.6
2018-11-05T03:58:40.186Z,3.7
2018-11-05T03:58:59.794Z,3.5
2018-11-05T03:59:19.326Z,3.4
2018-11-05T03:59:38.914Z,3.4
2018-11-05T03:59:58.441Z,3.4
2018-11-05T04:00:17.990Z,3.3
2018-11-05T04:00:37.509Z,3.5
2018-11-05T04:00:57.066Z,3.6
2018-11-05T04:01:16.660Z,3.5
2018-11-05T04:01:36.252Z,3.7
2018-11-05T04:01:58.789Z,3.5
2018-11-05T04:02:18.501Z,3.4
2018-11-05T04:02:38.063Z,3.3
2018-11-05T04:02:57.707Z,3.5
2018-11-05T04:03:17.342Z,3.6
2018-11-05T04:03:36.863Z,3.6
2018-11-05T04:03:56.496Z,3.5
2018-11-05T04:04:16.037Z,3.7
2018-11-05T04:04:35.643Z,3.7
2018-11-05T04:04:55.240Z,3.8
2018-11-05T04:05:14.905Z,3.7
2018-11-05T04:05:34.550Z,3.8
2018-11-05T04:05:54.125Z,4.1
2018-11-05T04:06:13.781Z,4.3
2018-11-05T04:06:33.511Z,3.9
2018-11-05T04:06:52.960Z,3.9
2018-11-05T04:07:12.554Z,4
2018-11-05T04:07:33.164Z,3.9
2018-11-05T04:07:52.736Z,4.1
2018-11-05T04:08:12.360Z,3.9
2018-11-05T04:08:31.957Z,3.8
2018-11-05T04:08:51.508Z,4.1
2018-11-05T04:09:12.140Z,4.2
2018-11-05T04:09:31.784Z,4.1
2018-11-05T04:09:51.483Z,4
2018-11-05T04:10:11.063Z,3.9
2018-11-05T04:10:30.752Z,4.1
2018-11-05T04:10:51.321Z,4.3
2018-11-05T04:11:10.847Z,4.2
2018-11-05T04:11:30.496Z,4.4
2018-11-05T04:11:50.142Z,4
2018-11-05T04:12:09.707Z,4.1
2018-11-05T04:12:29.328Z,4.2
2018-11-05T04:12:48.921Z,4
2018-11-05T04:13:09.462Z,4
2018-11-05T04:13:29.075Z,4.4
2018-11-05T04:13:48.725Z,4.3
2018-11-05T04:14:08.305Z,4.3
2018-11-05T04:14:28.861Z,4.2
2018-11-05T04:14:48.451Z,4.4
2018-11-05T04:15:08.060Z,4.6
2018-11-05T04:15:28.732Z,4.4
2018-11-05T04:15:48.278Z,4
2018-11-05T04:16:08.019Z,4.2
2018-11-05T04:16:27.507Z,4.3
2018-11-05T04:16:47.071Z,4.3
2018-11-05T04:17:07.659Z,4.1
2018-11-05T04:17:30.486Z,4.2
2018-11-05T04:17:50.080Z,4.1
2018-11-05T04:18:09.602Z,4.1
2018-11-05T04:18:29.150Z,4.3
2018-11-05T04:18:48.675Z,4.4
2018-11-05T04:19:08.227Z,4.4